Terminal Aerodrome Forecast
Issued by NWS

Home | Current Version | Previous Version | Text Only | Print | Product List | Glossary On
Versions: 1 2 3 4 5 6 7 8 9 10 11 12 13 14
618
FTUS44 KBMX 120520
TAFMGM
TAF
KMGM 120520Z 1206/1306 21005KT P6SM SKC
     FM121200 27008KT P6SM SKC
     FM121500 31013G20KT P6SM FEW035
     FM130000 31005KT P6SM SKC=

USA.gov is the U.S. government's official web portal to all federal, state and local government web resources and services.